sensor_id;sensor_type;location;lat;lon;timestamp;temperature;humidity
51476;DHT22;37554;50.362;7.568;2022-12-29T00:01:54;14.20;66.40
51476;DHT22;37554;50.362;7.568;2022-12-29T00:04:21;14.10;66.40
51476;DHT22;37554;50.362;7.568;2022-12-29T00:06:47;14.10;66.40
51476;DHT22;37554;50.362;7.568;2022-12-29T00:09:15;14.10;66.40
51476;DHT22;37554;50.362;7.568;2022-12-29T00:11:42;14.20;66.50
51476;DHT22;37554;50.362;7.568;2022-12-29T00:14:11;14.20;66.50
51476;DHT22;37554;50.362;7.568;2022-12-29T00:16:56;14.20;66.50
51476;DHT22;37554;50.362;7.568;2022-12-29T00:19:22;14.20;66.50
51476;DHT22;37554;50.362;7.568;2022-12-29T00:22:12;14.20;66.50
51476;DHT22;37554;50.362;7.568;2022-12-29T00:24:56;14.20;66.50
51476;DHT22;37554;50.362;7.568;2022-12-29T00:27:34;14.20;66.60
51476;DHT22;37554;50.362;7.568;2022-12-29T00:30:22;14.20;66.60
51476;DHT22;37554;50.362;7.568;2022-12-29T00:33:18;14.20;66.70
51476;DHT22;37554;50.362;7.568;2022-12-29T00:36:22;14.20;66.70
51476;DHT22;37554;50.362;7.568;2022-12-29T00:39:01;14.20;66.70
51476;DHT22;37554;50.362;7.568;2022-12-29T00:41:47;14.20;66.70
51476;DHT22;37554;50.362;7.568;2022-12-29T00:44:31;14.20;66.70
51476;DHT22;37554;50.362;7.568;2022-12-29T00:46:57;14.20;66.70
51476;DHT22;37554;50.362;7.568;2022-12-29T00:49:27;14.20;66.80
51476;DHT22;37554;50.362;7.568;2022-12-29T00:52:10;14.20;66.90
51476;DHT22;37554;50.362;7.568;2022-12-29T00:54:38;14.20;66.90
51476;DHT22;37554;50.362;7.568;2022-12-29T00:57:05;14.20;66.90
51476;DHT22;37554;50.362;7.568;2022-12-29T00:59:32;14.20;67.00
51476;DHT22;37554;50.362;7.568;2022-12-29T01:01:59;14.20;67.00
51476;DHT22;37554;50.362;7.568;2022-12-29T01:04:26;14.20;67.00
51476;DHT22;37554;50.362;7.568;2022-12-29T01:06:52;14.20;67.10
51476;DHT22;37554;50.362;7.568;2022-12-29T01:09:18;14.20;67.10
51476;DHT22;37554;50.362;7.568;2022-12-29T01:12:03;14.20;67.20
51476;DHT22;37554;50.362;7.568;2022-12-29T01:14:29;14.20;67.20
51476;DHT22;37554;50.362;7.568;2022-12-29T01:16:55;14.20;67.30
51476;DHT22;37554;50.362;7.568;2022-12-29T01:19:21;14.20;67.30
51476;DHT22;37554;50.362;7.568;2022-12-29T01:21:48;14.20;67.30
51476;DHT22;37554;50.362;7.568;2022-12-29T01:24:15;14.20;67.60
51476;DHT22;37554;50.362;7.568;2022-12-29T01:26:41;14.20;67.60
51476;DHT22;37554;50.362;7.568;2022-12-29T01:29:07;14.20;67.60
51476;DHT22;37554;50.362;7.568;2022-12-29T01:31:33;14.20;67.60
51476;DHT22;37554;50.362;7.568;2022-12-29T01:33:58;14.20;67.70
51476;DHT22;37554;50.362;7.568;2022-12-29T01:36:24;14.20;67.60
51476;DHT22;37554;50.362;7.568;2022-12-29T01:38:50;14.20;67.70
51476;DHT22;37554;50.362;7.568;2022-12-29T01:41:16;14.20;67.80
51476;DHT22;37554;50.362;7.568;2022-12-29T01:43:49;14.20;67.90
51476;DHT22;37554;50.362;7.568;2022-12-29T01:46:39;14.20;67.80
51476;DHT22;37554;50.362;7.568;2022-12-29T01:49:19;14.20;67.90
51476;DHT22;37554;50.362;7.568;2022-12-29T01:51:52;14.20;67.90
51476;DHT22;37554;50.362;7.568;2022-12-29T01:54:22;14.20;67.90
51476;DHT22;37554;50.362;7.568;2022-12-29T01:56:51;14.20;67.90
51476;DHT22;37554;50.362;7.568;2022-12-29T01:59:21;14.20;67.90
51476;DHT22;37554;50.362;7.568;2022-12-29T02:01:48;14.20;68.00
51476;DHT22;37554;50.362;7.568;2022-12-29T02:04:15;14.20;68.00
51476;DHT22;37554;50.362;7.568;2022-12-29T02:07:11;14.20;68.00
51476;DHT22;37554;50.362;7.568;2022-12-29T02:09:40;14.20;68.20
51476;DHT22;37554;50.362;7.568;2022-12-29T02:12:07;14.20;68.00
51476;DHT22;37554;50.362;7.568;2022-12-29T02:14:33;14.20;68.00
51476;DHT22;37554;50.362;7.568;2022-12-29T02:23:01;14.20;67.90
51476;DHT22;37554;50.362;7.568;2022-12-29T02:25:49;14.20;67.80
51476;DHT22;37554;50.362;7.568;2022-12-29T02:31:46;14.20;68.00
51476;DHT22;37554;50.362;7.568;2022-12-29T02:34:23;14.20;67.90
51476;DHT22;37554;50.362;7.568;2022-12-29T02:37:22;14.20;67.90
51476;DHT22;37554;50.362;7.568;2022-12-29T02:40:27;14.20;68.00
51476;DHT22;37554;50.362;7.568;2022-12-29T02:43:19;14.20;68.00
51476;DHT22;37554;50.362;7.568;2022-12-29T02:46:09;14.20;67.90
51476;DHT22;37554;50.362;7.568;2022-12-29T02:49:08;14.20;67.90
51476;DHT22;37554;50.362;7.568;2022-12-29T02:54:41;14.20;67.90
51476;DHT22;37554;50.362;7.568;2022-12-29T02:59:51;14.20;67.90
51476;DHT22;37554;50.362;7.568;2022-12-29T03:08:44;14.20;68.00
51476;DHT22;37554;50.362;7.568;2022-12-29T03:11:14;14.20;68.20
51476;DHT22;37554;50.362;7.568;2022-12-29T03:14:06;14.20;67.90
51476;DHT22;37554;50.362;7.568;2022-12-29T03:16:53;14.20;68.00
51476;DHT22;37554;50.362;7.568;2022-12-29T03:19:30;14.20;68.50
51476;DHT22;37554;50.362;7.568;2022-12-29T03:22:08;14.20;67.90
51476;DHT22;37554;50.362;7.568;2022-12-29T03:25:03;14.20;68.10
51476;DHT22;37554;50.362;7.568;2022-12-29T03:27:50;14.20;68.20
51476;DHT22;37554;50.362;7.568;2022-12-29T03:30:17;14.20;68.40
51476;DHT22;37554;50.362;7.568;2022-12-29T03:32:50;14.20;68.40
51476;DHT22;37554;50.362;7.568;2022-12-29T03:35:20;14.20;68.50
51476;DHT22;37554;50.362;7.568;2022-12-29T03:38:02;14.20;68.40
51476;DHT22;37554;50.362;7.568;2022-12-29T03:40:31;14.20;68.50
51476;DHT22;37554;50.362;7.568;2022-12-29T03:42:58;14.20;68.50
51476;DHT22;37554;50.362;7.568;2022-12-29T03:45:24;14.20;68.50
51476;DHT22;37554;50.362;7.568;2022-12-29T03:47:51;14.20;68.50
51476;DHT22;37554;50.362;7.568;2022-12-29T03:50:17;14.20;68.50
51476;DHT22;37554;50.362;7.568;2022-12-29T03:52:43;14.20;68.50
51476;DHT22;37554;50.362;7.568;2022-12-29T03:55:09;14.20;68.50
51476;DHT22;37554;50.362;7.568;2022-12-29T03:57:35;14.20;68.50
51476;DHT22;37554;50.362;7.568;2022-12-29T04:00:00;14.20;68.40
51476;DHT22;37554;50.362;7.568;2022-12-29T04:02:26;14.10;68.40
51476;DHT22;37554;50.362;7.568;2022-12-29T04:04:52;14.20;68.50
51476;DHT22;37554;50.362;7.568;2022-12-29T04:07:17;14.10;68.50
51476;DHT22;37554;50.362;7.568;2022-12-29T04:09:43;14.10;68.40
51476;DHT22;37554;50.362;7.568;2022-12-29T04:12:08;14.10;68.40
51476;DHT22;37554;50.362;7.568;2022-12-29T04:14:34;14.10;68.40
51476;DHT22;37554;50.362;7.568;2022-12-29T04:17:00;14.10;68.40
51476;DHT22;37554;50.362;7.568;2022-12-29T04:19:25;14.20;68.50
51476;DHT22;37554;50.362;7.568;2022-12-29T04:21:51;14.20;68.40
51476;DHT22;37554;50.362;7.568;2022-12-29T04:24:16;14.20;68.30
51476;DHT22;37554;50.362;7.568;2022-12-29T04:26:42;14.20;68.30
51476;DHT22;37554;50.362;7.568;2022-12-29T04:29:08;14.20;68.30
51476;DHT22;37554;50.362;7.568;2022-12-29T04:31:33;14.20;68.20
51476;DHT22;37554;50.362;7.568;2022-12-29T04:33:59;14.20;68.20
51476;DHT22;37554;50.362;7.568;2022-12-29T04:36:25;14.20;68.20
51476;DHT22;37554;50.362;7.568;2022-12-29T04:38:51;14.20;68.00
51476;DHT22;37554;50.362;7.568;2022-12-29T04:41:17;14.20;68.00
51476;DHT22;37554;50.362;7.568;2022-12-29T04:43:42;14.20;68.00
51476;DHT22;37554;50.362;7.568;2022-12-29T04:46:08;14.20;68.00
51476;DHT22;37554;50.362;7.568;2022-12-29T04:48:34;14.20;68.00
51476;DHT22;37554;50.362;7.568;2022-12-29T04:50:59;14.20;68.00
51476;DHT22;37554;50.362;7.568;2022-12-29T04:53:25;14.20;67.90
51476;DHT22;37554;50.362;7.568;2022-12-29T04:55:51;14.20;68.50
51476;DHT22;37554;50.362;7.568;2022-12-29T04:58:18;14.20;67.90
51476;DHT22;37554;50.362;7.568;2022-12-29T05:00:44;14.20;67.90
51476;DHT22;37554;50.362;7.568;2022-12-29T05:03:10;14.20;67.90
51476;DHT22;37554;50.362;7.568;2022-12-29T05:05:35;14.20;67.90
51476;DHT22;37554;50.362;7.568;2022-12-29T05:08:01;14.20;67.90
51476;DHT22;37554;50.362;7.568;2022-12-29T05:10:27;14.20;67.90
51476;DHT22;37554;50.362;7.568;2022-12-29T05:12:52;14.20;68.00
51476;DHT22;37554;50.362;7.568;2022-12-29T05:15:18;14.20;67.90
51476;DHT22;37554;50.362;7.568;2022-12-29T05:17:44;14.20;68.00
51476;DHT22;37554;50.362;7.568;2022-12-29T05:20:10;14.20;67.90
51476;DHT22;37554;50.362;7.568;2022-12-29T05:22:36;14.20;67.80
51476;DHT22;37554;50.362;7.568;2022-12-29T05:25:01;14.20;67.80
51476;DHT22;37554;50.362;7.568;2022-12-29T05:27:27;14.30;67.70
51476;DHT22;37554;50.362;7.568;2022-12-29T05:29:53;14.20;67.70
51476;DHT22;37554;50.362;7.568;2022-12-29T05:32:19;14.20;67.60
51476;DHT22;37554;50.362;7.568;2022-12-29T05:34:44;14.20;67.70
51476;DHT22;37554;50.362;7.568;2022-12-29T05:37:10;14.20;67.60
51476;DHT22;37554;50.362;7.568;2022-12-29T05:39:36;14.20;67.70
51476;DHT22;37554;50.362;7.568;2022-12-29T05:42:01;14.20;67.80
51476;DHT22;37554;50.362;7.568;2022-12-29T05:44:27;14.20;67.80
51476;DHT22;37554;50.362;7.568;2022-12-29T05:46:53;14.20;67.90
51476;DHT22;37554;50.362;7.568;2022-12-29T05:49:18;14.20;67.80
51476;DHT22;37554;50.362;7.568;2022-12-29T05:51:44;14.20;67.70
51476;DHT22;37554;50.362;7.568;2022-12-29T05:54:10;14.20;67.60
51476;DHT22;37554;50.362;7.568;2022-12-29T05:56:35;14.30;67.70
51476;DHT22;37554;50.362;7.568;2022-12-29T05:59:01;14.30;67.70
51476;DHT22;37554;50.362;7.568;2022-12-29T06:01:27;14.30;67.70
51476;DHT22;37554;50.362;7.568;2022-12-29T06:03:52;14.30;67.60
51476;DHT22;37554;50.362;7.568;2022-12-29T06:06:18;14.30;67.70
51476;DHT22;37554;50.362;7.568;2022-12-29T06:08:44;14.30;67.70
51476;DHT22;37554;50.362;7.568;2022-12-29T06:11:10;14.30;67.80
51476;DHT22;37554;50.362;7.568;2022-12-29T06:13:35;14.30;67.80
51476;DHT22;37554;50.362;7.568;2022-12-29T06:16:01;14.30;67.80
51476;DHT22;37554;50.362;7.568;2022-12-29T06:18:27;14.30;67.90
51476;DHT22;37554;50.362;7.568;2022-12-29T06:20:53;14.30;67.80
51476;DHT22;37554;50.362;7.568;2022-12-29T06:23:18;14.30;67.80
51476;DHT22;37554;50.362;7.568;2022-12-29T06:25:44;14.30;67.70
51476;DHT22;37554;50.362;7.568;2022-12-29T06:28:11;14.30;67.70
51476;DHT22;37554;50.362;7.568;2022-12-29T06:30:38;14.30;67.50
51476;DHT22;37554;50.362;7.568;2022-12-29T06:33:04;14.30;67.60
51476;DHT22;37554;50.362;7.568;2022-12-29T06:35:29;14.30;67.60
51476;DHT22;37554;50.362;7.568;2022-12-29T06:37:55;14.30;67.60
51476;DHT22;37554;50.362;7.568;2022-12-29T06:40:20;14.30;67.50
51476;DHT22;37554;50.362;7.568;2022-12-29T06:42:47;14.30;67.50
51476;DHT22;37554;50.362;7.568;2022-12-29T06:45:12;14.40;67.60
51476;DHT22;37554;50.362;7.568;2022-12-29T06:47:38;14.50;67.50
51476;DHT22;37554;50.362;7.568;2022-12-29T06:50:04;14.40;67.30
51476;DHT22;37554;50.362;7.568;2022-12-29T06:52:30;14.40;67.50
51476;DHT22;37554;50.362;7.568;2022-12-29T06:54:55;14.50;67.60
51476;DHT22;37554;50.362;7.568;2022-12-29T06:57:21;14.50;67.50
51476;DHT22;37554;50.362;7.568;2022-12-29T06:59:47;14.50;67.60
51476;DHT22;37554;50.362;7.568;2022-12-29T07:02:13;14.50;67.60
51476;DHT22;37554;50.362;7.568;2022-12-29T07:04:45;14.50;67.70
51476;DHT22;37554;50.362;7.568;2022-12-29T07:07:34;14.50;67.80
51476;DHT22;37554;50.362;7.568;2022-12-29T07:10:08;14.50;67.80
51476;DHT22;37554;50.362;7.568;2022-12-29T07:12:34;14.50;67.80
51476;DHT22;37554;50.362;7.568;2022-12-29T07:18:01;14.50;67.90
51476;DHT22;37554;50.362;7.568;2022-12-29T07:20:28;14.50;67.90
51476;DHT22;37554;50.362;7.568;2022-12-29T07:22:57;14.50;68.10
51476;DHT22;37554;50.362;7.568;2022-12-29T07:25:33;14.40;68.00
51476;DHT22;37554;50.362;7.568;2022-12-29T07:28:15;14.40;68.20
51476;DHT22;37554;50.362;7.568;2022-12-29T07:30:41;14.40;68.60
51476;DHT22;37554;50.362;7.568;2022-12-29T07:33:10;14.40;68.60
51476;DHT22;37554;50.362;7.568;2022-12-29T07:36:07;14.40;68.80
51476;DHT22;37554;50.362;7.568;2022-12-29T07:38:33;14.40;69.20
51476;DHT22;37554;50.362;7.568;2022-12-29T07:41:05;14.40;69.10
51476;DHT22;37554;50.362;7.568;2022-12-29T07:43:34;14.40;69.20
51476;DHT22;37554;50.362;7.568;2022-12-29T07:46:00;14.40;69.30
51476;DHT22;37554;50.362;7.568;2022-12-29T07:48:25;14.30;69.40
51476;DHT22;37554;50.362;7.568;2022-12-29T07:50:52;14.30;69.50
51476;DHT22;37554;50.362;7.568;2022-12-29T07:53:18;14.30;69.60
51476;DHT22;37554;50.362;7.568;2022-12-29T07:55:44;14.30;69.60
51476;DHT22;37554;50.362;7.568;2022-12-29T07:58:18;14.30;69.70
51476;DHT22;37554;50.362;7.568;2022-12-29T08:00:46;14.30;69.80
51476;DHT22;37554;50.362;7.568;2022-12-29T08:03:12;14.30;69.80
51476;DHT22;37554;50.362;7.568;2022-12-29T08:05:38;14.30;69.90
51476;DHT22;37554;50.362;7.568;2022-12-29T08:08:04;14.30;69.90
51476;DHT22;37554;50.362;7.568;2022-12-29T08:10:30;14.30;69.90
51476;DHT22;37554;50.362;7.568;2022-12-29T08:12:55;14.30;69.90
51476;DHT22;37554;50.362;7.568;2022-12-29T08:15:24;14.30;70.00
51476;DHT22;37554;50.362;7.568;2022-12-29T08:17:49;14.30;70.00
51476;DHT22;37554;50.362;7.568;2022-12-29T08:20:15;14.30;69.90
51476;DHT22;37554;50.362;7.568;2022-12-29T08:22:43;14.30;70.40
51476;DHT22;37554;50.362;7.568;2022-12-29T08:25:21;14.30;69.70
51476;DHT22;37554;50.362;7.568;2022-12-29T08:27:46;14.40;69.60
51476;DHT22;37554;50.362;7.568;2022-12-29T08:30:12;14.40;69.50
51476;DHT22;37554;50.362;7.568;2022-12-29T08:32:38;14.40;69.40
51476;DHT22;37554;50.362;7.568;2022-12-29T08:35:04;14.40;69.30
51476;DHT22;37554;50.362;7.568;2022-12-29T08:37:30;14.40;69.10
51476;DHT22;37554;50.362;7.568;2022-12-29T08:39:57;14.40;69.00
51476;DHT22;37554;50.362;7.568;2022-12-29T08:42:24;14.50;69.00
51476;DHT22;37554;50.362;7.568;2022-12-29T08:44:54;14.40;69.00
51476;DHT22;37554;50.362;7.568;2022-12-29T08:47:20;14.40;68.90
51476;DHT22;37554;50.362;7.568;2022-12-29T08:49:45;14.50;68.90
51476;DHT22;37554;50.362;7.568;2022-12-29T08:52:11;14.50;68.80
51476;DHT22;37554;50.362;7.568;2022-12-29T08:54:36;14.50;68.80
51476;DHT22;37554;50.362;7.568;2022-12-29T08:57:02;14.50;68.60
51476;DHT22;37554;50.362;7.568;2022-12-29T08:59:28;14.60;68.60
51476;DHT22;37554;50.362;7.568;2022-12-29T09:01:53;14.60;68.40
51476;DHT22;37554;50.362;7.568;2022-12-29T09:04:19;14.70;68.40
51476;DHT22;37554;50.362;7.568;2022-12-29T09:06:45;14.70;68.20
51476;DHT22;37554;50.362;7.568;2022-12-29T09:09:10;14.80;68.10
51476;DHT22;37554;50.362;7.568;2022-12-29T09:11:36;14.80;67.90
51476;DHT22;37554;50.362;7.568;2022-12-29T09:14:02;14.80;67.80
51476;DHT22;37554;50.362;7.568;2022-12-29T09:16:28;14.80;67.80
51476;DHT22;37554;50.362;7.568;2022-12-29T09:18:54;14.90;67.80
51476;DHT22;37554;50.362;7.568;2022-12-29T09:21:19;14.90;67.80
51476;DHT22;37554;50.362;7.568;2022-12-29T09:23:45;14.90;67.80
51476;DHT22;37554;50.362;7.568;2022-12-29T09:26:11;14.90;67.80
51476;DHT22;37554;50.362;7.568;2022-12-29T09:28:36;14.90;67.80
51476;DHT22;37554;50.362;7.568;2022-12-29T09:31:02;14.90;67.70
51476;DHT22;37554;50.362;7.568;2022-12-29T09:33:28;15.00;67.70
51476;DHT22;37554;50.362;7.568;2022-12-29T09:35:55;15.00;67.60
51476;DHT22;37554;50.362;7.568;2022-12-29T09:38:21;15.00;67.40
51476;DHT22;37554;50.362;7.568;2022-12-29T09:41:19;15.00;67.40
51476;DHT22;37554;50.362;7.568;2022-12-29T09:44:16;15.00;67.40
51476;DHT22;37554;50.362;7.568;2022-12-29T09:46:49;15.00;67.30
51476;DHT22;37554;50.362;7.568;2022-12-29T09:49:44;15.00;67.40
51476;DHT22;37554;50.362;7.568;2022-12-29T09:52:19;15.00;67.40
51476;DHT22;37554;50.362;7.568;2022-12-29T09:55:16;15.00;68.00
51476;DHT22;37554;50.362;7.568;2022-12-29T09:57:52;15.00;67.30
51476;DHT22;37554;50.362;7.568;2022-12-29T10:00:41;15.00;67.20
51476;DHT22;37554;50.362;7.568;2022-12-29T10:03:15;15.00;67.20
51476;DHT22;37554;50.362;7.568;2022-12-29T10:05:47;15.00;67.20
51476;DHT22;37554;50.362;7.568;2022-12-29T10:11:46;15.10;67.30
51476;DHT22;37554;50.362;7.568;2022-12-29T10:14:33;15.20;66.90
51476;DHT22;37554;50.362;7.568;2022-12-29T10:25:41;15.60;65.90
51476;DHT22;37554;50.362;7.568;2022-12-29T10:31:40;15.70;65.70
51476;DHT22;37554;50.362;7.568;2022-12-29T10:42:57;15.60;66.30
51476;DHT22;37554;50.362;7.568;2022-12-29T10:45:27;15.70;66.90
51476;DHT22;37554;50.362;7.568;2022-12-29T10:47:58;15.70;66.30
51476;DHT22;37554;50.362;7.568;2022-12-29T10:50:25;15.80;66.30
51476;DHT22;37554;50.362;7.568;2022-12-29T10:52:53;15.80;66.30
51476;DHT22;37554;50.362;7.568;2022-12-29T10:55:23;15.80;66.40
51476;DHT22;37554;50.362;7.568;2022-12-29T10:57:50;15.80;66.50
51476;DHT22;37554;50.362;7.568;2022-12-29T11:00:19;15.90;66.40
51476;DHT22;37554;50.362;7.568;2022-12-29T11:03:03;16.00;66.20
51476;DHT22;37554;50.362;7.568;2022-12-29T11:08:12;16.20;65.90
51476;DHT22;37554;50.362;7.568;2022-12-29T11:10:44;16.20;65.80
51476;DHT22;37554;50.362;7.568;2022-12-29T11:13:18;16.20;65.90
51476;DHT22;37554;50.362;7.568;2022-12-29T11:15:48;16.10;66.10
51476;DHT22;37554;50.362;7.568;2022-12-29T11:18:23;16.00;66.20
51476;DHT22;37554;50.362;7.568;2022-12-29T11:20:54;16.00;66.30
51476;DHT22;37554;50.362;7.568;2022-12-29T11:23:29;16.00;66.20
51476;DHT22;37554;50.362;7.568;2022-12-29T11:26:21;16.00;66.30
51476;DHT22;37554;50.362;7.568;2022-12-29T11:31:29;16.10;66.00
51476;DHT22;37554;50.362;7.568;2022-12-29T11:33:54;16.00;66.00
51476;DHT22;37554;50.362;7.568;2022-12-29T11:36:22;16.00;66.00
51476;DHT22;37554;50.362;7.568;2022-12-29T11:38:51;16.00;65.90
51476;DHT22;37554;50.362;7.568;2022-12-29T11:41:25;16.00;65.80
51476;DHT22;37554;50.362;7.568;2022-12-29T11:43:55;16.00;65.70
51476;DHT22;37554;50.362;7.568;2022-12-29T11:46:36;16.00;65.60
51476;DHT22;37554;50.362;7.568;2022-12-29T11:49:02;16.10;65.50
51476;DHT22;37554;50.362;7.568;2022-12-29T11:51:53;16.10;65.40
51476;DHT22;37554;50.362;7.568;2022-12-29T11:56:49;16.00;65.10
51476;DHT22;37554;50.362;7.568;2022-12-29T12:01:58;16.10;64.60
51476;DHT22;37554;50.362;7.568;2022-12-29T12:04:28;16.10;64.60
51476;DHT22;37554;50.362;7.568;2022-12-29T12:09:35;16.00;64.20
51476;DHT22;37554;50.362;7.568;2022-12-29T12:12:03;16.10;64.30
51476;DHT22;37554;50.362;7.568;2022-12-29T12:14:36;16.20;64.00
51476;DHT22;37554;50.362;7.568;2022-12-29T12:17:18;16.30;63.40
51476;DHT22;37554;50.362;7.568;2022-12-29T12:19:54;16.40;63.00
51476;DHT22;37554;50.362;7.568;2022-12-29T12:22:31;16.60;62.50
51476;DHT22;37554;50.362;7.568;2022-12-29T12:24:59;16.70;62.00
51476;DHT22;37554;50.362;7.568;2022-12-29T12:27:37;16.90;61.70
51476;DHT22;37554;50.362;7.568;2022-12-29T12:32:52;17.10;60.70
51476;DHT22;37554;50.362;7.568;2022-12-29T12:36:04;17.10;60.60
51476;DHT22;37554;50.362;7.568;2022-12-29T12:41:24;17.20;60.40
51476;DHT22;37554;50.362;7.568;2022-12-29T13:00:22;17.00;60.40
51476;DHT22;37554;50.362;7.568;2022-12-29T13:03:17;17.20;60.20
51476;DHT22;37554;50.362;7.568;2022-12-29T13:06:18;17.30;59.30
51476;DHT22;37554;50.362;7.568;2022-12-29T13:09:46;17.20;55.70
51476;DHT22;37554;50.362;7.568;2022-12-29T13:14:34;16.40;57.30
51476;DHT22;37554;50.362;7.568;2022-12-29T13:19:41;16.10;58.10
51476;DHT22;37554;50.362;7.568;2022-12-29T13:33:58;17.00;57.10
51476;DHT22;37554;50.362;7.568;2022-12-29T13:36:37;17.10;56.90
51476;DHT22;37554;50.362;7.568;2022-12-29T13:41:44;17.40;56.60
51476;DHT22;37554;50.362;7.568;2022-12-29T13:44:39;17.50;56.30
51476;DHT22;37554;50.362;7.568;2022-12-29T13:47:18;17.50;55.90
51476;DHT22;37554;50.362;7.568;2022-12-29T13:49:46;17.40;56.50
51476;DHT22;37554;50.362;7.568;2022-12-29T13:52:28;17.30;56.80
51476;DHT22;37554;50.362;7.568;2022-12-29T13:58:02;17.20;57.10
51476;DHT22;37554;50.362;7.568;2022-12-29T14:00:38;17.10;57.10
51476;DHT22;37554;50.362;7.568;2022-12-29T14:03:17;17.00;57.50
51476;DHT22;37554;50.362;7.568;2022-12-29T14:06:02;17.00;57.60
51476;DHT22;37554;50.362;7.568;2022-12-29T14:08:28;16.90;57.60
51476;DHT22;37554;50.362;7.568;2022-12-29T14:11:05;16.90;57.90
51476;DHT22;37554;50.362;7.568;2022-12-29T14:13:38;16.90;58.00
51476;DHT22;37554;50.362;7.568;2022-12-29T14:16:05;16.90;58.00
51476;DHT22;37554;50.362;7.568;2022-12-29T14:18:32;16.90;58.10
51476;DHT22;37554;50.362;7.568;2022-12-29T14:21:04;16.90;58.10
51476;DHT22;37554;50.362;7.568;2022-12-29T14:23:44;16.80;58.00
51476;DHT22;37554;50.362;7.568;2022-12-29T14:26:11;16.80;58.00
51476;DHT22;37554;50.362;7.568;2022-12-29T14:28:48;16.80;58.20
51476;DHT22;37554;50.362;7.568;2022-12-29T14:33:40;16.80;58.20
51476;DHT22;37554;50.362;7.568;2022-12-29T14:36:25;16.80;58.20
51476;DHT22;37554;50.362;7.568;2022-12-29T14:38:52;16.80;57.70
51476;DHT22;37554;50.362;7.568;2022-12-29T14:41:33;16.80;58.00
51476;DHT22;37554;50.362;7.568;2022-12-29T14:44:09;16.80;57.80
51476;DHT22;37554;50.362;7.568;2022-12-29T14:49:17;16.70;58.00
51476;DHT22;37554;50.362;7.568;2022-12-29T14:51:43;16.60;58.00
51476;DHT22;37554;50.362;7.568;2022-12-29T14:54:41;16.60;58.20
51476;DHT22;37554;50.362;7.568;2022-12-29T14:57:17;16.60;57.70
51476;DHT22;37554;50.362;7.568;2022-12-29T14:59:46;16.50;58.20
51476;DHT22;37554;50.362;7.568;2022-12-29T15:02:18;16.50;58.20
51476;DHT22;37554;50.362;7.568;2022-12-29T15:04:46;16.40;58.20
51476;DHT22;37554;50.362;7.568;2022-12-29T15:07:13;16.30;58.20
51476;DHT22;37554;50.362;7.568;2022-12-29T15:09:47;16.30;58.10
51476;DHT22;37554;50.362;7.568;2022-12-29T15:12:34;16.30;58.10
51476;DHT22;37554;50.362;7.568;2022-12-29T15:15:02;16.20;58.10
51476;DHT22;37554;50.362;7.568;2022-12-29T15:17:37;16.20;58.10
51476;DHT22;37554;50.362;7.568;2022-12-29T15:20:24;16.10;58.00
51476;DHT22;37554;50.362;7.568;2022-12-29T15:22:55;16.10;57.50
51476;DHT22;37554;50.362;7.568;2022-12-29T15:25:21;16.00;58.00
51476;DHT22;37554;50.362;7.568;2022-12-29T15:27:51;16.00;58.10
51476;DHT22;37554;50.362;7.568;2022-12-29T15:30:18;16.00;58.00
51476;DHT22;37554;50.362;7.568;2022-12-29T15:32:44;15.90;58.10
51476;DHT22;37554;50.362;7.568;2022-12-29T15:35:31;15.90;58.10
51476;DHT22;37554;50.362;7.568;2022-12-29T15:37:57;15.80;57.70
51476;DHT22;37554;50.362;7.568;2022-12-29T15:40:28;15.80;58.10
51476;DHT22;37554;50.362;7.568;2022-12-29T15:43:13;15.70;58.10
51476;DHT22;37554;50.362;7.568;2022-12-29T15:45:41;15.70;58.00
51476;DHT22;37554;50.362;7.568;2022-12-29T15:48:16;15.70;58.30
51476;DHT22;37554;50.362;7.568;2022-12-29T15:50:43;15.70;58.20
51476;DHT22;37554;50.362;7.568;2022-12-29T15:53:12;15.70;58.30
51476;DHT22;37554;50.362;7.568;2022-12-29T15:55:40;15.60;58.30
51476;DHT22;37554;50.362;7.568;2022-12-29T15:58:25;15.60;58.30
51476;DHT22;37554;50.362;7.568;2022-12-29T16:00:54;15.60;58.30
51476;DHT22;37554;50.362;7.568;2022-12-29T16:03:20;15.60;58.40
51476;DHT22;37554;50.362;7.568;2022-12-29T16:06:21;15.50;58.30
51476;DHT22;37554;50.362;7.568;2022-12-29T16:08:56;15.60;58.40
51476;DHT22;37554;50.362;7.568;2022-12-29T16:11:30;15.50;58.70
51476;DHT22;37554;50.362;7.568;2022-12-29T16:13:57;15.50;58.70
51476;DHT22;37554;50.362;7.568;2022-12-29T16:18:53;15.40;58.70
51476;DHT22;37554;50.362;7.568;2022-12-29T16:23:52;15.40;58.60
51476;DHT22;37554;50.362;7.568;2022-12-29T16:26:20;15.40;58.60
51476;DHT22;37554;50.362;7.568;2022-12-29T16:28:49;15.40;58.60
51476;DHT22;37554;50.362;7.568;2022-12-29T16:34:11;15.30;58.40
51476;DHT22;37554;50.362;7.568;2022-12-29T16:36:53;15.30;58.40
51476;DHT22;37554;50.362;7.568;2022-12-29T16:41:50;15.20;58.60
51476;DHT22;37554;50.362;7.568;2022-12-29T16:47:06;15.20;58.70
51476;DHT22;37554;50.362;7.568;2022-12-29T16:49:45;15.20;58.40
51476;DHT22;37554;50.362;7.568;2022-12-29T16:52:22;15.10;58.60
51476;DHT22;37554;50.362;7.568;2022-12-29T16:54:52;15.10;59.20
51476;DHT22;37554;50.362;7.568;2022-12-29T16:57:27;15.10;58.60
51476;DHT22;37554;50.362;7.568;2022-12-29T16:59:57;15.10;58.50
51476;DHT22;37554;50.362;7.568;2022-12-29T17:02:25;15.10;58.60
51476;DHT22;37554;50.362;7.568;2022-12-29T17:04:52;15.10;58.50
51476;DHT22;37554;50.362;7.568;2022-12-29T17:07:24;15.00;58.50
51476;DHT22;37554;50.362;7.568;2022-12-29T17:09:50;15.00;58.50
51476;DHT22;37554;50.362;7.568;2022-12-29T17:12:21;15.00;58.50
51476;DHT22;37554;50.362;7.568;2022-12-29T17:15:04;15.00;58.50
51476;DHT22;37554;50.362;7.568;2022-12-29T17:17:41;15.00;58.40
51476;DHT22;37554;50.362;7.568;2022-12-29T17:20:27;14.90;58.30
51476;DHT22;37554;50.362;7.568;2022-12-29T17:22:54;14.90;58.10
51476;DHT22;37554;50.362;7.568;2022-12-29T17:27:57;14.90;58.50
51476;DHT22;37554;50.362;7.568;2022-12-29T17:30:25;14.90;58.60
51476;DHT22;37554;50.362;7.568;2022-12-29T17:32:53;14.90;58.60
51476;DHT22;37554;50.362;7.568;2022-12-29T17:35:21;14.90;58.80
51476;DHT22;37554;50.362;7.568;2022-12-29T17:37:48;14.90;58.80
51476;DHT22;37554;50.362;7.568;2022-12-29T17:40:18;14.80;58.90
51476;DHT22;37554;50.362;7.568;2022-12-29T17:42:49;14.80;58.80
51476;DHT22;37554;50.362;7.568;2022-12-29T17:45:30;14.80;58.90
51476;DHT22;37554;50.362;7.568;2022-12-29T17:47:57;14.80;58.80
51476;DHT22;37554;50.362;7.568;2022-12-29T17:50:28;14.80;58.90
51476;DHT22;37554;50.362;7.568;2022-12-29T17:52:57;14.80;59.00
51476;DHT22;37554;50.362;7.568;2022-12-29T17:55:24;14.80;59.00
51476;DHT22;37554;50.362;7.568;2022-12-29T17:57:51;14.80;59.10
51476;DHT22;37554;50.362;7.568;2022-12-29T18:00:18;14.70;59.10
51476;DHT22;37554;50.362;7.568;2022-12-29T18:02:45;14.70;59.10
51476;DHT22;37554;50.362;7.568;2022-12-29T18:05:20;14.70;59.20